This is the latest recevied weather packets stored in our database for station/object KE2A-13. If no packets are shown the sender has not sent any weather packets the latest 10 day(s).
| Time | Temp. | Humidity | Pressure | Rain* | Wind** | Luminosity | Snow |
|---|---|---|---|---|---|---|---|
| 1777955400 | 12.78° C | 71% | 1010.4 hPa | - | - | - | - |
| 1777954500 | 12.22° C | 76% | 1010.4 hPa | - | - | - | - |
| 1777953600 | 11.67° C | 82% | 1010.4 hPa | - | - | - | - |
| 1777952700 | 11.11° C | 82% | 1010.4 hPa | - | - | - | - |
| 1777951800 | 11.11° C | 86% | 1010.6 hPa | - | - | - | - |
| 1777950900 | 11.11° C | 85% | 1010.6 hPa | - | - | - | - |
| 1777950000 | 11.11° C | 83% | 1010.4 hPa | - | - | - | - |
| 1777949100 | 11.67° C | 82% | 1010.5 hPa | - | - | - | - |
| 1777948200 | 11.67° C | 81% | 1010.6 hPa | - | - | - | - |
| 1777947300 | 12.22° C | 79% | 1010.7 hPa | - | - | - | - |
| 1777946400 | 12.78° C | 78% | 1010.6 hPa | - | - | - | - |
| 1777945500 | 13.33° C | 73% | 1010.5 hPa | - | - | - | - |
| 1777944600 | 14.44° C | 68% | 1010.4 hPa | - | - | - | - |
| 1777943700 | 15° C | 66% | 1010.2 hPa | - | - | - | - |
| 1777942800 | 15° C | 66% | 1010 hPa | - | - | - | - |
| 1777941900 | 15.56° C | 63% | 1009.8 hPa | - | - | - | - |
| 1777941000 | 16.11° C | 62% | 1009.5 hPa | - | - | - | - |
| 1777940100 | 16.67° C | 59% | 1009.3 hPa | - | - | - | - |
| 1777939200 | 17.78° C | 57% | 1009.1 hPa | - | - | - | - |
| 1777938300 | 18.33° C | 54% | 1008.8 hPa | - | - | - | - |
| 1777937400 | 18.89° C | 49% | 1008.5 hPa | - | - | - | - |
| 1777936500 | 19.44° C | 49% | 1008.3 hPa | - | - | - | - |
| 1777935600 | 20° C | 48% | 1008.2 hPa | - | - | - | - |
| 1777934700 | 20° C | 45% | 1008 hPa | - | - | - | - |
| 1777933800 | 20.56° C | 43% | 1008.1 hPa | - | - | - | - |
* Rain since midnight (hover to see other rain measurements)
** Current wind speed in m/s (hover to see current wind gust speed)